^^
WestSenecaWeather Station Historical Data
 
Daily Summary for July 25, 2017 Units:  English    Metric   Both
Daily Weekly Monthly Yearly Custom
  Current: High: Low: Average:
Temperature: 68.0 °F 68.9 °F 59.2 °F 63.2 °F
Dew Point: 57.4 °F 60.0 °F 55.7 °F 57.8 °F
Humidity: 69% 95% 65% 83%
Wind Speed: 2.3mph 12.7mph 0.0mph 3.8mph
Wind Gust: 2.3mph 12.7mph - -
WindSSW - - SE
Pressure: 30.19 in 30.19 in 29.94 in -
Precipitation: 0.02 in      
Historical Graphs
 
 
Tabular Data for July 25, 2017
Time Temperature Dew Point Pressure Wind Wind Speed Wind Gust Humidity Rainfall Rate (Hourly) solar
00:01 62.4 °F 60.0 °F 29.94 in ENE 2.3 mph 2.3 mph 92% 0.00 in 0.0 W/m2
00:06 62.4 °F 59.7 °F 29.94 in East 3.5 mph 3.5 mph 91% 0.00 in 0.0 W/m2
00:11 62.4 °F 59.7 °F 29.94 in East 4.6 mph 4.6 mph 91% 0.00 in 0.0 W/m2
00:16 62.4 °F 59.7 °F 29.94 in East 3.5 mph 3.5 mph 91% 0.00 in 0.0 W/m2
00:21 62.3 °F 59.6 °F 29.95 in East 8.0 mph 8.0 mph 91% 0.00 in 0.0 W/m2
00:26 62.3 °F 59.6 °F 29.95 in East 4.6 mph 4.6 mph 91% 0.00 in 0.0 W/m2
00:31 62.2 °F 59.5 °F 29.95 in ENE 3.5 mph 3.5 mph 91% 0.00 in 0.0 W/m2
00:36 62.2 °F 59.5 °F 29.95 in ENE 6.9 mph 6.9 mph 91% 0.00 in 0.0 W/m2
00:41 62.3 °F 59.3 °F 29.95 in ENE 3.5 mph 3.5 mph 90% 0.00 in 0.0 W/m2
00:46 62.3 °F 59.3 °F 29.96 in ENE 2.3 mph 2.3 mph 90% 0.00 in 0.0 W/m2
00:51 62.3 °F 59.3 °F 29.96 in East 3.5 mph 3.5 mph 90% 0.00 in 0.0 W/m2
00:56 62.3 °F 59.6 °F 29.96 in Calm     91% 0.00 in 0.0 W/m2
01:01 62.3 °F 59.3 °F 29.96 in East 2.3 mph 2.3 mph 90% 0.00 in 0.0 W/m2
01:06 62.2 °F 59.2 °F 29.97 in ESE 4.6 mph 4.6 mph 90% 0.00 in 0.0 W/m2
01:11 62.2 °F 59.2 °F 29.97 in Calm     90% 0.00 in 0.0 W/m2
01:12 62.2 °F 59.2 °F 29.96 in ESE 3.5 mph 3.5 mph 90% 0.00 in 0.0 W/m2
01:17 62.2 °F 59.2 °F 29.97 in Calm     90% 0.00 in 0.0 W/m2
01:22 62.2 °F 59.5 °F 29.97 in ESE 3.5 mph 3.5 mph 91% 0.00 in 0.0 W/m2
01:27 62.2 °F 59.2 °F 29.97 in ENE 3.5 mph 3.5 mph 90% 0.00 in 0.0 W/m2
01:32 62.2 °F 59.2 °F 29.97 in ENE 12.7 mph 12.7 mph 90% 0.00 in 0.0 W/m2
01:37 62.2 °F 58.9 °F 29.98 in SE 6.9 mph 6.9 mph 89% 0.00 in 0.0 W/m2
01:42 62.2 °F 58.9 °F 29.97 in East 3.5 mph 3.5 mph 89% 0.00 in 0.0 W/m2
01:47 62.1 °F 59.1 °F 29.98 in East 3.5 mph 3.5 mph 90% 0.00 in 0.0 W/m2
01:52 62.1 °F 59.1 °F 29.98 in East 1.2 mph   90% 0.00 in 0.0 W/m2
01:57 62.0 °F 59.0 °F 29.98 in East 4.6 mph 4.6 mph 90% 0.00 in 0.0 W/m2
02:02 62.1 °F 59.1 °F 29.98 in East 1.2 mph   90% 0.00 in 0.0 W/m2
02:07 62.0 °F 59.0 °F 29.98 in Calm     90% 0.00 in 0.0 W/m2
02:12 62.1 °F 59.1 °F 29.98 in Calm   0.1 mph 90% 0.00 in 0.0 W/m2
02:17 62.1 °F 59.1 °F 29.98 in East 2.3 mph 2.3 mph 90% 0.00 in 0.0 W/m2
02:22 62.1 °F 59.1 °F 29.98 in ENE 3.0 mph 3.0 mph 90% 0.00 in 0.0 W/m2
02:27 62.2 °F 59.2 °F 29.98 in ENE 1.0 mph   90% 0.00 in 0.0 W/m2
02:32 62.1 °F 59.1 °F 29.98 in ENE 1.2 mph 1.2 mph 90% 0.00 in 0.0 W/m2
02:37 62.0 °F 59.0 °F 29.98 in ENE 4.0 mph 4.0 mph 90% 0.00 in 0.0 W/m2
02:42 61.9 °F 58.9 °F 29.98 in ENE 3.5 mph 3.5 mph 90% 0.00 in 0.0 W/m2
02:47 61.9 °F 59.2 °F 29.98 in Calm     91% 0.00 in 0.0 W/m2
02:52 61.8 °F 59.1 °F 29.98 in Calm     91% 0.00 in 0.0 W/m2
02:57 61.8 °F 59.1 °F 29.99 in Calm     91% 0.00 in 0.0 W/m2
03:02 61.8 °F 59.5 °F 29.99 in ENE 1.2 mph 1.2 mph 92% 0.00 in 0.0 W/m2
03:03 61.8 °F 59.5 °F 29.99 in ENE 1.2 mph 1.2 mph 92% 0.00 in 0.0 W/m2
03:08 61.8 °F 59.5 °F 29.99 in ENE 2.3 mph 2.3 mph 92% 0.00 in 0.0 W/m2
03:13 61.7 °F 59.4 °F 29.99 in ENE 1.2 mph 1.2 mph 92% 0.00 in 0.0 W/m2
03:18 61.7 °F 59.4 °F 29.99 in ENE 2.0 mph 2.0 mph 92% 0.00 in 0.0 W/m2
03:23 61.7 °F 59.4 °F 29.99 in Calm     92% 0.00 in 0.0 W/m2
03:28 61.6 °F 59.3 °F 29.99 in Calm     92% 0.00 in 0.0 W/m2
03:33 61.6 °F 59.3 °F 30.00 in ESE 1.2 mph 1.2 mph 92% 0.00 in 0.0 W/m2
03:38 61.6 °F 59.3 °F 30.00 in Calm   0.3 mph 92% 0.00 in 0.0 W/m2
03:43 61.6 °F 59.3 °F 30.00 in ESE 1.0 mph 1.0 mph 92% 0.00 in 0.0 W/m2
03:48 61.6 °F 59.3 °F 30.00 in ESE 1.0 mph 1.0 mph 92% 0.00 in 0.0 W/m2
03:53 61.6 °F 59.3 °F 30.00 in ESE 3.5 mph 3.5 mph 92% 0.00 in 0.0 W/m2
03:58 61.6 °F 59.3 °F 30.00 in ESE 3.5 mph 3.5 mph 92% 0.00 in 0.0 W/m2
04:03 61.6 °F 59.3 °F 30.00 in SE 4.0 mph 4.0 mph 92% 0.00 in 0.0 W/m2
04:08 61.5 °F 59.2 °F 30.01 in SE 3.5 mph 3.5 mph 92% 0.00 in 0.0 W/m2
04:13 61.4 °F 59.1 °F 30.01 in SE 3.5 mph 3.5 mph 92% 0.00 in 0.0 W/m2
04:18 61.3 °F 59.3 °F 30.01 in SE 3.5 mph 3.5 mph 93% 0.00 in 0.0 W/m2
04:23 61.2 °F 59.2 °F 30.01 in SE 3.5 mph 3.5 mph 93% 0.00 in 0.0 W/m2
04:28 61.1 °F 59.1 °F 30.01 in SE 1.0 mph   93% 0.00 in 0.0 W/m2
04:33 61.1 °F 59.1 °F 30.02 in SE 3.5 mph 3.5 mph 93% 0.00 in 0.0 W/m2
04:38 61.0 °F 59.0 °F 30.02 in SE 2.3 mph 2.3 mph 93% 0.00 in 0.0 W/m2
04:43 60.8 °F 58.8 °F 30.02 in ESE 5.0 mph 5.0 mph 93% 0.00 in 0.0 W/m2
04:48 60.6 °F 58.6 °F 30.02 in SE 4.0 mph 4.0 mph 93% 0.00 in 0.0 W/m2
04:53 60.6 °F 58.6 °F 30.03 in SE 3.5 mph 3.5 mph 93% 0.00 in 0.0 W/m2
04:58 60.5 °F 58.5 °F 30.03 in SE 3.5 mph 3.5 mph 93% 0.00 in 0.0 W/m2
05:03 60.5 °F 58.5 °F 30.03 in SE 3.5 mph 3.5 mph 93% 0.00 in 0.0 W/m2
05:08 60.6 °F 58.6 °F 30.03 in SE 3.5 mph 3.5 mph 93% 0.00 in 0.0 W/m2
05:13 60.6 °F 58.6 °F 30.03 in SE 1.2 mph   93% 0.00 in 0.0 W/m2
05:18 60.5 °F 58.2 °F 30.03 in SE 3.5 mph 3.5 mph 92% 0.00 in 0.0 W/m2
05:23 60.5 °F 58.2 °F 30.04 in SE 2.3 mph 2.3 mph 92% 0.00 in 0.0 W/m2
05:28 60.5 °F 58.2 °F 30.04 in SSE 2.3 mph 2.3 mph 92% 0.00 in 0.0 W/m2
05:33 60.5 °F 57.9 °F 30.04 in SSE 2.3 mph 2.3 mph 91% 0.00 in 0.0 W/m2
05:38 60.5 °F 57.9 °F 30.05 in SSE 3.5 mph 3.5 mph 91% 0.00 in 0.0 W/m2
05:43 60.4 °F 57.8 °F 30.05 in SE 5.8 mph 5.8 mph 91% 0.00 in 0.0 W/m2
05:48 60.2 °F 57.9 °F 30.05 in ENE 2.3 mph 2.3 mph 92% 0.00 in 0.0 W/m2
05:53 60.1 °F 57.8 °F 30.05 in Calm     92% 0.01 in 0.0 W/m2
05:58 60.1 °F 57.8 °F 30.05 in Calm     92% 0.01 in 0.0 W/m2
05:59 60.0 °F 57.7 °F 30.05 in Calm     92% 0.01 in 0.0 W/m2
06:04 60.0 °F 58.0 °F 30.05 in Calm     93% 0.01 in 0.0 W/m2
06:09 59.9 °F 57.9 °F 30.05 in Calm     93% 0.01 in 0.0 W/m2
06:14 59.8 °F 57.8 °F 30.06 in Calm     93% 0.01 in 0.0 W/m2
06:19 59.8 °F 57.8 °F 30.06 in ENE 1.2 mph 1.2 mph 93% 0.01 in 0.0 W/m2
06:24 59.8 °F 57.8 °F 30.07 in ENE 2.3 mph 2.3 mph 93% 0.01 in 0.0 W/m2
06:29 59.7 °F 57.7 °F 30.07 in ENE 1.2 mph 1.2 mph 93% 0.01 in 0.0 W/m2
06:34 59.6 °F 57.9 °F 30.07 in East 1.2 mph 1.2 mph 94% 0.01 in 0.0 W/m2
06:39 59.4 °F 57.7 °F 30.07 in SE 3.5 mph 3.5 mph 94% 0.02 in 0.0 W/m2
06:44 59.3 °F 57.6 °F 30.08 in SSE 3.5 mph 3.5 mph 94% 0.02 in 0.0 W/m2
06:49 59.3 °F 57.6 °F 30.07 in Calm     94% 0.01 in 0.0 W/m2
06:54 59.3 °F 57.6 °F 30.07 in Calm     94% 0.01 in 0.0 W/m2
06:59 59.2 °F 57.5 °F 30.07 in Calm     94% 0.01 in 0.0 W/m2
07:04 59.2 °F 57.5 °F 30.08 in Calm     94% 0.01 in 0.0 W/m2
07:09 59.3 °F 57.6 °F 30.08 in Calm     94% 0.01 in 0.0 W/m2
07:14 59.4 °F 58.0 °F 30.08 in Calm     95% 0.01 in 0.0 W/m2
07:19 59.5 °F 57.8 °F 30.08 in ESE 3.5 mph 3.5 mph 94% 0.01 in 0.0 W/m2
07:24 59.4 °F 57.7 °F 30.08 in Calm     94% 0.01 in 0.0 W/m2
07:29 59.5 °F 57.8 °F 30.09 in Calm     94% 0.01 in 0.0 W/m2
07:35 59.6 °F 57.9 °F 30.09 in Calm     94% 0.01 in 0.0 W/m2
07:40 59.7 °F 57.7 °F 30.09 in Calm     93% 0.00 in 0.0 W/m2
07:45 59.8 °F 57.8 °F 30.09 in Calm     93% 0.00 in 0.0 W/m2
07:50 60.0 °F 58.3 °F 30.09 in Calm     94% 0.00 in 0.0 W/m2
07:55 60.1 °F 58.4 °F 30.10 in Calm     94% 0.00 in 0.0 W/m2
08:00 60.1 °F 58.1 °F 30.10 in Calm     93% 0.00 in 0.0 W/m2
08:05 60.2 °F 58.2 °F 30.10 in Calm     93% 0.00 in 0.0 W/m2
08:10 60.3 °F 58.3 °F 30.10 in Calm     93% 0.00 in 0.0 W/m2
08:15 60.4 °F 58.4 °F 30.10 in Calm     93% 0.00 in 0.0 W/m2
08:20 60.4 °F 58.4 °F 30.11 in ESE 1.2 mph   93% 0.00 in 0.0 W/m2
08:25 60.6 °F 58.6 °F 30.11 in Calm     93% 0.00 in 0.0 W/m2
08:30 60.7 °F 58.7 °F 30.11 in Calm     93% 0.00 in 0.0 W/m2
08:35 60.9 °F 58.9 °F 30.11 in Calm     93% 0.00 in 0.0 W/m2
08:40 61.0 °F 59.0 °F 30.11 in ESE 1.2 mph 1.2 mph 93% 0.00 in 0.0 W/m2
08:45 61.3 °F 59.3 °F 30.11 in Calm     93% 0.00 in 0.0 W/m2
08:50 61.4 °F 59.1 °F 30.11 in SE 3.5 mph 3.5 mph 92% 0.00 in 0.0 W/m2
08:55 61.4 °F 59.1 °F 30.11 in SE 3.5 mph 3.5 mph 92% 0.00 in 0.0 W/m2
09:00 61.5 °F 58.8 °F 30.12 in South 5.8 mph 5.8 mph 91% 0.00 in 0.0 W/m2
09:05 61.5 °F 58.2 °F 30.12 in SE 5.0 mph 5.0 mph 89% 0.00 in 0.0 W/m2
09:10 61.5 °F 58.2 °F 30.12 in SSE 3.5 mph 3.5 mph 89% 0.00 in 0.0 W/m2
09:15 61.4 °F 57.8 °F 30.13 in ESE 4.0 mph 4.0 mph 88% 0.00 in 0.0 W/m2
09:20 61.5 °F 58.2 °F 30.13 in SE 2.0 mph 2.0 mph 89% 0.00 in 0.0 W/m2
09:25 61.6 °F 58.3 °F 30.13 in ESE 3.5 mph 3.5 mph 89% 0.00 in 0.0 W/m2
09:30 61.6 °F 58.3 °F 30.13 in SE 8.0 mph 8.0 mph 89% 0.00 in 0.0 W/m2
09:35 61.8 °F 57.6 °F 30.13 in SE 5.0 mph 5.0 mph 86% 0.00 in 0.0 W/m2
09:40 62.0 °F 56.8 °F 30.13 in SE 8.1 mph 8.1 mph 83% 0.00 in 0.0 W/m2
09:45 62.1 °F 56.5 °F 30.13 in SE 8.1 mph 8.1 mph 82% 0.00 in 0.0 W/m2
09:50 62.3 °F 57.1 °F 30.13 in SE 3.5 mph 3.5 mph 83% 0.00 in 0.0 W/m2
09:55 62.6 °F 57.4 °F 30.13 in SE 7.0 mph 7.0 mph 83% 0.00 in 0.0 W/m2
10:00 63.0 °F 57.8 °F 30.13 in SE 7.0 mph 7.0 mph 83% 0.00 in 0.0 W/m2
10:05 62.9 °F 57.0 °F 30.13 in SE 9.2 mph 9.2 mph 81% 0.00 in 0.0 W/m2
10:10 63.0 °F 57.1 °F 30.13 in SSE 6.0 mph 6.0 mph 81% 0.00 in 0.0 W/m2
10:15 62.9 °F 57.0 °F 30.14 in SE 5.8 mph 5.8 mph 81% 0.00 in 0.0 W/m2
10:20 62.9 °F 57.0 °F 30.14 in ESE 5.8 mph 5.8 mph 81% 0.00 in 0.0 W/m2
10:25 62.7 °F 56.8 °F 30.14 in East 4.6 mph 4.6 mph 81% 0.00 in 0.0 W/m2
10:30 62.3 °F 56.4 °F 30.14 in South 6.9 mph 6.9 mph 81% 0.00 in 0.0 W/m2
10:35 62.2 °F 56.3 °F 30.14 in SSE 8.1 mph 8.1 mph 81% 0.00 in 0.0 W/m2
10:40 62.2 °F 56.0 °F 30.14 in SE 9.2 mph 9.2 mph 80% 0.00 in 0.0 W/m2
10:45 62.4 °F 56.5 °F 30.14 in SE 5.0 mph 5.0 mph 81% 0.00 in 0.0 W/m2
10:50 62.7 °F 56.1 °F 30.14 in SE 10.4 mph 10.4 mph 79% 0.00 in 0.0 W/m2
10:55 62.9 °F 56.3 °F 30.15 in ESE 7.0 mph 7.0 mph 79% 0.00 in 0.0 W/m2
11:00 63.1 °F 56.1 °F 30.15 in SE 9.2 mph 9.2 mph 78% 0.00 in 0.0 W/m2
11:05 63.3 °F 56.3 °F 30.15 in SE 9.0 mph 9.0 mph 78% 0.00 in 0.0 W/m2
11:10 63.3 °F 56.3 °F 30.15 in SSW 6.9 mph 6.9 mph 78% 0.00 in 0.0 W/m2
11:15 63.2 °F 56.2 °F 30.15 in SE 6.9 mph 6.9 mph 78% 0.00 in 0.0 W/m2
11:20 63.0 °F 56.0 °F 30.15 in SSE 3.5 mph 3.5 mph 78% 0.00 in 0.0 W/m2
11:25 63.0 °F 56.4 °F 30.16 in South 5.8 mph 5.8 mph 79% 0.00 in 0.0 W/m2
11:30 62.9 °F 56.6 °F 30.16 in SSW 5.8 mph 5.8 mph 80% 0.00 in 0.0 W/m2
11:35 62.9 °F 56.3 °F 30.16 in ESE 5.8 mph 5.8 mph 79% 0.00 in 0.0 W/m2
11:40 62.9 °F 56.3 °F 30.16 in SE 6.9 mph 6.9 mph 79% 0.00 in 0.0 W/m2
11:45 63.1 °F 56.5 °F 30.16 in SSE 6.0 mph 6.0 mph 79% 0.00 in 0.0 W/m2
11:50 63.4 °F 56.1 °F 30.17 in SSE 11.5 mph 11.5 mph 77% 0.00 in 0.0 W/m2
11:55 63.4 °F 56.1 °F 30.17 in ESE 5.8 mph 5.8 mph 77% 0.00 in 0.0 W/m2
11:56 63.4 °F 56.1 °F 30.16 in SSE 7.0 mph 7.0 mph 77% 0.00 in 0.0 W/m2
12:01 63.5 °F 56.2 °F 30.16 in SSE 5.8 mph 5.8 mph 77% 0.00 in 0.0 W/m2
12:06 63.8 °F 56.1 °F 30.16 in SE 5.0 mph 5.0 mph 76% 0.00 in 0.0 W/m2
12:11 63.8 °F 55.7 °F 30.17 in SSE 6.0 mph 6.0 mph 75% 0.00 in 0.0 W/m2
12:16 63.8 °F 56.1 °F 30.17 in SSE 4.6 mph 4.6 mph 76% 0.00 in 0.0 W/m2
12:21 63.7 °F 56.0 °F 30.17 in South 6.9 mph 6.9 mph 76% 0.00 in 0.0 W/m2
12:26 63.4 °F 56.1 °F 30.17 in SSE 4.0 mph 4.0 mph 77% 0.00 in 0.0 W/m2
12:31 63.2 °F 56.2 °F 30.17 in SE 4.6 mph 4.6 mph 78% 0.00 in 0.0 W/m2
12:36 63.1 °F 56.1 °F 30.17 in SSE 4.6 mph 4.6 mph 78% 0.00 in 0.0 W/m2
12:41 63.1 °F 56.1 °F 30.17 in SE 4.6 mph 4.6 mph 78% 0.00 in 0.0 W/m2
12:46 63.2 °F 56.2 °F 30.17 in SE 3.5 mph 3.5 mph 78% 0.00 in 0.0 W/m2
12:47 63.3 °F 56.7 °F 30.17 in SSE 4.6 mph 4.6 mph 79% 0.00 in 0.0 W/m2
12:52 63.7 °F 56.7 °F 30.17 in SSE 3.5 mph 3.5 mph 78% 0.00 in 0.0 W/m2
12:57 63.8 °F 56.4 °F 30.18 in ESE 9.2 mph 9.2 mph 77% 0.00 in 0.0 W/m2
13:02 63.6 °F 56.6 °F 30.18 in SSE 8.0 mph 8.0 mph 78% 0.00 in 0.0 W/m2
13:07 63.2 °F 56.6 °F 30.18 in SSE 5.8 mph 5.8 mph 79% 0.00 in 0.0 W/m2
13:12 62.9 °F 56.3 °F 30.18 in SSE 5.8 mph 5.8 mph 79% 0.00 in 0.0 W/m2
13:17 62.9 °F 56.6 °F 30.18 in South 5.8 mph 5.8 mph 80% 0.00 in 0.0 W/m2
13:22 63.0 °F 56.0 °F 30.18 in SSE 6.9 mph 6.9 mph 78% 0.00 in 0.0 W/m2
13:27 63.3 °F 56.7 °F 30.19 in SE 6.0 mph 6.0 mph 79% 0.00 in 0.0 W/m2
13:32 63.5 °F 56.5 °F 30.18 in SSW 8.1 mph 8.1 mph 78% 0.00 in 0.0 W/m2
13:37 63.3 °F 56.7 °F 30.18 in SSW 6.9 mph 6.9 mph 79% 0.00 in 0.0 W/m2
13:42 63.4 °F 56.8 °F 30.19 in SE 5.0 mph 5.0 mph 79% 0.00 in 0.0 W/m2
13:47 63.3 °F 56.7 °F 30.18 in SE 4.6 mph 4.6 mph 79% 0.00 in 0.0 W/m2
13:52 63.6 °F 57.0 °F 30.19 in ESE 2.3 mph 2.3 mph 79% 0.00 in 0.0 W/m2
13:57 64.1 °F 56.7 °F 30.18 in SSW 2.0 mph 2.0 mph 77% 0.00 in 0.0 W/m2
14:02 64.9 °F 56.8 °F 30.18 in SSW 3.5 mph 3.5 mph 75% 0.00 in 0.0 W/m2
14:07 65.4 °F 56.9 °F 30.18 in SSE 5.8 mph 5.8 mph 74% 0.00 in 0.0 W/m2
14:12 65.7 °F 56.8 °F 30.18 in SSE 5.8 mph 5.8 mph 73% 0.00 in 0.0 W/m2
14:17 65.8 °F 56.5 °F 30.18 in SSE 6.9 mph 6.9 mph 72% 0.00 in 0.0 W/m2
14:22 65.6 °F 56.3 °F 30.18 in SE 5.0 mph 5.0 mph 72% 0.00 in 0.0 W/m2
14:27 65.6 °F 56.7 °F 30.18 in SE 4.0 mph 4.0 mph 73% 0.00 in 0.0 W/m2
14:32 65.8 °F 56.9 °F 30.19 in SSE 6.9 mph 6.9 mph 73% 0.00 in 0.0 W/m2
14:37 65.8 °F 56.9 °F 30.18 in SE 6.9 mph 6.9 mph 73% 0.00 in 0.0 W/m2
14:42 65.9 °F 57.4 °F 30.18 in East 4.6 mph 4.6 mph 74% 0.00 in 0.0 W/m2
14:47 66.1 °F 57.2 °F 30.18 in SSW 5.0 mph 5.0 mph 73% 0.00 in 0.0 W/m2
14:52 66.0 °F 57.1 °F 30.18 in SE 3.5 mph 3.5 mph 73% 0.00 in 0.0 W/m2
14:57 66.0 °F 57.5 °F 30.18 in SSW 4.0 mph 4.0 mph 74% 0.00 in 0.0 W/m2
15:02 66.3 °F 57.4 °F 30.18 in SE 5.0 mph 5.0 mph 73% 0.00 in 0.0 W/m2
15:07 66.5 °F 57.2 °F 30.18 in South 5.8 mph 5.8 mph 72% 0.00 in 0.0 W/m2
15:12 66.6 °F 56.9 °F 30.18 in SE 4.0 mph 4.0 mph 71% 0.00 in 0.0 W/m2
15:17 66.5 °F 57.2 °F 30.18 in SSE 5.0 mph 5.0 mph 72% 0.00 in 0.0 W/m2
15:22 66.8 °F 57.5 °F 30.18 in SSE 7.0 mph 7.0 mph 72% 0.00 in 0.0 W/m2
15:27 67.0 °F 57.7 °F 30.18 in WSW 3.5 mph 3.5 mph 72% 0.00 in 0.0 W/m2
15:32 67.4 °F 57.7 °F 30.18 in SE 6.9 mph 6.9 mph 71% 0.00 in 0.0 W/m2
15:37 67.7 °F 57.6 °F 30.18 in SSW 6.9 mph 6.9 mph 70% 0.00 in 0.0 W/m2
15:42 67.9 °F 57.4 °F 30.18 in SSW 5.8 mph 5.8 mph 69% 0.00 in 0.0 W/m2
15:47 67.9 °F 58.1 °F 30.18 in WNW 3.5 mph 3.5 mph 71% 0.00 in 0.0 W/m2
15:52 67.7 °F 57.2 °F 30.18 in SSW 9.2 mph 9.2 mph 69% 0.00 in 0.0 W/m2
15:57 67.4 °F 56.9 °F 30.18 in South 4.6 mph 4.6 mph 69% 0.00 in 0.0 W/m2
16:02 67.4 °F 57.3 °F 30.18 in SSW 6.9 mph 6.9 mph 70% 0.00 in 0.0 W/m2
16:07 67.6 °F 57.5 °F 30.18 in SSE 6.0 mph 6.0 mph 70% 0.00 in 0.0 W/m2
16:12 67.5 °F 56.6 °F 30.18 in SSW 6.9 mph 6.9 mph 68% 0.00 in 0.0 W/m2
16:17 67.9 °F 57.4 °F 30.18 in SSE 6.0 mph 6.0 mph 69% 0.00 in 0.0 W/m2
16:22 67.8 °F 56.9 °F 30.18 in SSW 6.9 mph 6.9 mph 68% 0.00 in 0.0 W/m2
16:27 67.7 °F 57.2 °F 30.18 in SSW 3.5 mph 3.5 mph 69% 0.00 in 0.0 W/m2
16:32 67.9 °F 57.8 °F 30.19 in SSW 5.0 mph 5.0 mph 70% 0.00 in 0.0 W/m2
16:37 67.9 °F 57.4 °F 30.19 in SSW 5.0 mph 5.0 mph 69% 0.00 in 0.0 W/m2
16:42 67.9 °F 56.9 °F 30.19 in SSE 5.8 mph 5.8 mph 68% 0.00 in 0.0 W/m2
16:47 68.0 °F 57.4 °F 30.19 in SSW 4.6 mph 4.6 mph 69% 0.00 in 0.0 W/m2
16:52 68.2 °F 57.2 °F 30.19 in South 5.8 mph 5.8 mph 68% 0.00 in 0.0 W/m2
16:57 68.1 °F 57.1 °F 30.19 in SE 3.5 mph 3.5 mph 68% 0.00 in 0.0 W/m2
17:02 68.0 °F 57.0 °F 30.19 in South 4.6 mph 4.6 mph 68% 0.00 in 0.0 W/m2
17:07 68.5 °F 57.5 °F 30.19 in SSW 3.5 mph 3.5 mph 68% 0.00 in 0.0 W/m2
17:12 68.8 °F 57.4 °F 30.19 in SSW 3.5 mph 3.5 mph 67% 0.00 in 0.0 W/m2
17:17 68.5 °F 56.3 °F 30.19 in SE 5.8 mph 5.8 mph 65% 0.00 in 0.0 W/m2
17:22 68.4 °F 57.0 °F 30.19 in South 4.6 mph 4.6 mph 67% 0.00 in 0.0 W/m2
17:27 68.3 °F 56.5 °F 30.19 in SSE 4.6 mph 4.6 mph 66% 0.00 in 0.0 W/m2
17:32 68.1 °F 57.1 °F 30.19 in WSW 3.5 mph 3.7 mph 68% 0.00 in 0.0 W/m2
17:37 68.2 °F 57.2 °F 30.19 in South 3.5 mph 3.5 mph 68% 0.00 in 0.0 W/m2
17:42 68.5 °F 57.5 °F 30.19 in SW 4.0 mph 4.0 mph 68% 0.00 in 0.0 W/m2
17:47 68.6 °F 57.2 °F 30.19 in WSW 4.0 mph 4.0 mph 67% 0.00 in 0.0 W/m2
17:52 68.9 °F 57.5 °F 30.19 in SSE 9.2 mph 9.2 mph 67% 0.00 in 0.0 W/m2
17:57 68.7 °F 57.3 °F 30.19 in SSW 3.5 mph 3.5 mph 67% 0.00 in 0.0 W/m2
18:02 68.7 °F 57.7 °F 30.19 in WNW 1.2 mph 1.2 mph 68% 0.00 in 0.0 W/m2
18:07 68.6 °F 57.2 °F 30.19 in SSW 3.5 mph 3.6 mph 67% 0.00 in 0.0 W/m2
18:12 68.5 °F 57.1 °F 30.18 in SSE 3.5 mph 3.5 mph 67% 0.00 in 0.0 W/m2
18:17 68.4 °F 57.0 °F 30.19 in SSE 3.5 mph 3.5 mph 67% 0.00 in 0.0 W/m2
18:18 68.3 °F 56.9 °F 30.19 in SSW 3.5 mph 3.5 mph 67% 0.00 in 0.0 W/m2
18:23 68.3 °F 57.7 °F 30.19 in SSE 4.0 mph 4.0 mph 69% 0.00 in 0.0 W/m2
18:28 68.2 °F 57.2 °F 30.19 in SE 3.5 mph 3.5 mph 68% 0.00 in 0.0 W/m2
18:33 68.1 °F 57.5 °F 30.19 in SE 2.3 mph 2.3 mph 69% 0.00 in 0.0 W/m2
18:38 68.2 °F 57.6 °F 30.19 in SSW 4.6 mph 4.6 mph 69% 0.00 in 0.0 W/m2
18:43 68.0 °F 57.4 °F 30.19 in SSW 2.3 mph 2.3 mph 69% 0.00 in 0.0 W/m2
west seneca weather
Compliments of Weather Underground - 2 mb